createdAt,value
2019-06-20T00:01:32.870Z,19.80
2019-06-20T00:04:03.052Z,19.70
2019-06-20T00:06:33.139Z,19.70
2019-06-20T00:09:03.351Z,19.70
2019-06-20T00:11:33.513Z,19.70
2019-06-20T00:14:03.671Z,19.70
2019-06-20T00:16:33.754Z,19.60
2019-06-20T00:19:03.983Z,19.60
2019-06-20T00:21:34.035Z,19.60
2019-06-20T00:24:04.214Z,19.60
2019-06-20T00:26:34.320Z,19.50
2019-06-20T00:29:04.447Z,19.50
2019-06-20T00:31:34.457Z,19.50
2019-06-20T00:34:04.579Z,19.40
2019-06-20T00:36:34.727Z,19.40
2019-06-20T00:39:06.838Z,19.40
2019-06-20T00:41:37.058Z,19.40
2019-06-20T00:44:07.197Z,19.30
2019-06-20T00:46:37.352Z,19.30
2019-06-20T00:49:07.655Z,19.30
2019-06-20T00:51:37.670Z,19.30
2019-06-20T00:54:07.820Z,19.30
2019-06-20T00:56:37.989Z,19.20
2019-06-20T00:59:08.200Z,19.30
2019-06-20T01:01:38.272Z,19.30
2019-06-20T01:04:08.341Z,19.20
2019-06-20T01:06:38.432Z,19.20
2019-06-20T01:09:09.703Z,19.10
2019-06-20T01:11:39.883Z,19.10
2019-06-20T01:14:10.042Z,19.10
2019-06-20T01:16:40.209Z,19.10
2019-06-20T01:19:10.403Z,19.10
2019-06-20T01:21:40.565Z,19.20
2019-06-20T01:24:10.808Z,19.20
2019-06-20T01:26:40.968Z,19.20
2019-06-20T01:29:11.162Z,19.10
2019-06-20T01:31:41.325Z,19.10
2019-06-20T01:34:11.977Z,19.10
2019-06-20T01:36:42.069Z,19.10
2019-06-20T01:39:12.146Z,19.10
2019-06-20T01:41:42.253Z,19.00
2019-06-20T01:44:12.323Z,19.00
2019-06-20T01:46:42.348Z,19.00
2019-06-20T01:49:12.546Z,19.00
2019-06-20T01:51:42.619Z,19.00
2019-06-20T01:54:12.649Z,19.00
2019-06-20T01:56:42.677Z,18.90
2019-06-20T01:59:12.850Z,18.90
2019-06-20T02:01:43.038Z,18.90
2019-06-20T02:04:13.193Z,18.80
2019-06-20T02:06:43.328Z,18.90
2019-06-20T02:09:13.428Z,18.90
2019-06-20T02:11:43.542Z,18.90
2019-06-20T02:14:14.165Z,18.90
2019-06-20T02:16:44.270Z,18.90
2019-06-20T02:19:14.472Z,18.80
2019-06-20T02:21:44.648Z,18.80
2019-06-20T02:24:14.758Z,18.80
2019-06-20T02:26:44.892Z,18.80
2019-06-20T02:29:15.061Z,18.80
2019-06-20T02:31:45.150Z,18.70
2019-06-20T02:34:15.321Z,18.70
2019-06-20T02:36:45.469Z,18.80
2019-06-20T02:39:15.565Z,18.70
2019-06-20T02:41:45.689Z,18.70
2019-06-20T02:44:29.010Z,18.70
2019-06-20T02:46:47.729Z,18.80
2019-06-20T02:49:17.780Z,18.70
2019-06-20T02:51:48.417Z,18.70
2019-06-20T02:54:18.512Z,18.70
2019-06-20T02:56:48.698Z,18.70
2019-06-20T02:59:18.864Z,18.70
2019-06-20T03:01:49.032Z,18.70
2019-06-20T03:04:18.964Z,18.70
2019-06-20T03:06:49.185Z,18.70
2019-06-20T03:09:19.329Z,18.70
2019-06-20T03:11:49.559Z,18.70
2019-06-20T03:14:19.643Z,18.70
2019-06-20T03:16:49.853Z,18.80
2019-06-20T03:19:20.006Z,18.80
2019-06-20T03:21:49.937Z,18.80
2019-06-20T03:24:20.124Z,18.80
2019-06-20T03:26:50.165Z,18.80
2019-06-20T03:29:20.357Z,18.80
2019-06-20T03:31:50.540Z,18.80
2019-06-20T03:34:20.636Z,18.80
2019-06-20T03:36:50.817Z,18.80
2019-06-20T03:39:20.951Z,18.80
2019-06-20T03:41:50.965Z,18.80
2019-06-20T03:44:21.077Z,18.80
2019-06-20T03:46:51.143Z,18.80
2019-06-20T03:49:21.238Z,18.80
2019-06-20T03:51:51.807Z,18.80
2019-06-20T03:54:21.913Z,18.80
2019-06-20T03:56:51.850Z,18.80
2019-06-20T03:59:21.937Z,18.80
2019-06-20T04:01:51.950Z,18.80
2019-06-20T04:04:21.964Z,18.80
2019-06-20T04:06:51.925Z,18.80
2019-06-20T04:09:21.856Z,18.80
2019-06-20T04:11:51.801Z,18.80
2019-06-20T04:14:21.912Z,18.80
2019-06-20T04:16:51.994Z,18.90
2019-06-20T04:19:21.947Z,18.90
2019-06-20T04:21:52.205Z,18.90
2019-06-20T04:24:22.393Z,18.90
2019-06-20T04:26:52.623Z,18.90
2019-06-20T04:29:22.772Z,18.90
2019-06-20T04:31:52.975Z,18.90
2019-06-20T04:34:23.048Z,18.90
2019-06-20T04:36:53.174Z,18.90
2019-06-20T04:39:23.176Z,18.90
2019-06-20T04:41:53.388Z,18.90
2019-06-20T04:44:23.490Z,19.00
2019-06-20T04:47:07.987Z,19.00
2019-06-20T04:49:38.059Z,19.00
2019-06-20T04:52:08.166Z,19.00
2019-06-20T04:54:38.776Z,19.00
2019-06-20T04:57:08.903Z,19.00
2019-06-20T04:59:39.020Z,19.00
2019-06-20T05:02:09.148Z,19.00
2019-06-20T05:04:39.227Z,19.00
2019-06-20T05:07:18.955Z,19.10
2019-06-20T05:09:49.040Z,19.10
2019-06-20T05:12:19.079Z,19.10
2019-06-20T05:14:49.179Z,19.10
2019-06-20T05:17:19.209Z,19.10
2019-06-20T05:19:49.304Z,19.10
2019-06-20T05:22:19.508Z,19.20
2019-06-20T05:24:49.470Z,19.20
2019-06-20T05:27:19.612Z,19.20
2019-06-20T05:29:49.701Z,19.20
2019-06-20T05:32:19.797Z,19.20
2019-06-20T05:34:49.824Z,19.30
2019-06-20T05:37:19.970Z,19.30
2019-06-20T05:39:50.067Z,19.30
2019-06-20T05:42:20.173Z,19.40
2019-06-20T05:44:50.260Z,19.40
2019-06-20T05:47:20.441Z,19.40
2019-06-20T05:49:50.575Z,19.40
2019-06-20T05:52:20.735Z,19.40
2019-06-20T05:54:50.825Z,19.40
2019-06-20T05:57:20.860Z,19.40
2019-06-20T05:59:50.935Z,19.50
2019-06-20T06:02:21.016Z,19.50
2019-06-20T06:04:50.954Z,19.60
2019-06-20T06:07:21.073Z,19.60
2019-06-20T06:09:51.218Z,19.70
2019-06-20T06:12:21.197Z,19.80
2019-06-20T06:14:51.196Z,19.80
2019-06-20T06:17:21.362Z,19.90
2019-06-20T06:19:51.521Z,19.90
2019-06-20T06:22:21.495Z,20.00
2019-06-20T06:24:51.592Z,20.00
2019-06-20T06:27:21.793Z,20.10
2019-06-20T06:29:52.043Z,20.10
2019-06-20T06:32:22.073Z,20.10
2019-06-20T06:34:52.091Z,20.10
2019-06-20T06:37:22.257Z,20.20
2019-06-20T06:39:52.287Z,20.20
2019-06-20T06:42:22.815Z,20.20
2019-06-20T06:44:53.411Z,20.20
2019-06-20T06:47:24.032Z,20.30
2019-06-20T06:49:54.115Z,20.30
2019-06-20T06:52:24.111Z,20.30
2019-06-20T06:54:54.207Z,20.30
2019-06-20T06:57:24.219Z,20.30
2019-06-20T06:59:54.282Z,20.30
2019-06-20T07:02:24.565Z,20.30
2019-06-20T07:04:54.604Z,20.30
2019-06-20T07:07:24.691Z,20.30
2019-06-20T07:09:54.804Z,20.30
2019-06-20T07:12:24.936Z,20.40
2019-06-20T07:14:54.937Z,20.40
2019-06-20T07:17:25.707Z,20.40
2019-06-20T07:19:55.812Z,20.40
2019-06-20T07:22:25.840Z,20.40
2019-06-20T07:24:55.948Z,20.50
2019-06-20T07:27:25.963Z,20.50
2019-06-20T07:29:56.075Z,20.50
2019-06-20T07:32:26.132Z,20.50
2019-06-20T07:34:56.370Z,20.50
2019-06-20T07:37:26.542Z,20.50
2019-06-20T07:39:56.642Z,20.60
2019-06-20T07:42:26.682Z,20.60
2019-06-20T07:44:56.768Z,20.60
2019-06-20T07:47:27.016Z,20.60
2019-06-20T07:49:57.070Z,20.70
2019-06-20T07:52:27.301Z,20.60
2019-06-20T07:54:57.343Z,20.70
2019-06-20T07:57:27.606Z,20.70
2019-06-20T07:59:57.699Z,20.70
2019-06-20T08:02:27.823Z,20.80
2019-06-20T08:04:57.856Z,20.80
2019-06-20T08:07:28.143Z,20.80
2019-06-20T08:09:59.386Z,20.80
2019-06-20T08:12:29.625Z,20.90
2019-06-20T08:15:13.967Z,20.90
2019-06-20T08:17:35.686Z,21.00
2019-06-20T08:20:03.688Z,21.00
2019-06-20T08:22:34.044Z,21.00
2019-06-20T08:25:05.405Z,21.10
2019-06-20T08:27:51.445Z,21.20
2019-06-20T08:30:24.832Z,21.20
2019-06-20T08:32:57.403Z,21.30
2019-06-20T08:35:30.359Z,21.40
2019-06-20T08:38:03.067Z,21.40
2019-06-20T08:40:39.873Z,21.50
2019-06-20T08:43:11.338Z,21.50
2019-06-20T08:45:43.855Z,21.60
2019-06-20T08:48:14.043Z,21.60
2019-06-20T08:50:45.407Z,21.60
2019-06-20T08:53:15.665Z,21.60
2019-06-20T08:55:45.884Z,21.60
2019-06-20T08:58:16.121Z,21.60
2019-06-20T09:00:46.353Z,21.60
2019-06-20T09:03:16.585Z,21.60
2019-06-20T09:05:46.792Z,21.70
2019-06-20T09:08:17.065Z,21.70
2019-06-20T09:10:47.266Z,21.80
2019-06-20T09:13:17.318Z,21.90
2019-06-20T09:15:47.601Z,22.00
2019-06-20T09:18:18.109Z,22.10
2019-06-20T09:20:48.262Z,22.20
2019-06-20T09:23:18.542Z,22.30
2019-06-20T09:25:48.959Z,22.40
2019-06-20T09:28:19.146Z,22.50
2019-06-20T09:30:50.475Z,22.60
2019-06-20T09:33:21.045Z,22.70
2019-06-20T09:35:52.692Z,22.80
2019-06-20T09:38:23.801Z,22.80
2019-06-20T09:40:54.865Z,22.80
2019-06-20T09:43:27.765Z,22.80
2019-06-20T09:45:58.391Z,22.80
2019-06-20T09:48:28.420Z,22.80
2019-06-20T09:50:58.696Z,22.90
2019-06-20T09:53:28.750Z,22.90
2019-06-20T09:55:58.761Z,22.90
2019-06-20T09:58:28.818Z,22.90
2019-06-20T10:00:59.333Z,22.90
2019-06-20T10:03:29.272Z,22.90
2019-06-20T10:05:59.369Z,22.90
2019-06-20T10:08:29.494Z,22.90
2019-06-20T10:10:59.601Z,22.90
2019-06-20T10:13:32.820Z,22.90
2019-06-20T10:16:02.975Z,23.00
2019-06-20T10:18:33.193Z,23.00
2019-06-20T10:21:03.286Z,23.00
2019-06-20T10:23:33.428Z,23.00
2019-06-20T10:26:03.954Z,23.10
2019-06-20T10:28:34.095Z,23.10
2019-06-20T10:31:04.244Z,23.10
2019-06-20T10:33:34.324Z,23.10
2019-06-20T10:36:04.703Z,23.10
2019-06-20T10:38:34.890Z,23.20
2019-06-20T10:41:05.039Z,23.20
2019-06-20T10:43:35.238Z,23.20
2019-06-20T10:46:05.565Z,23.30
2019-06-20T10:48:35.730Z,23.30
2019-06-20T10:51:23.561Z,23.40
2019-06-20T10:53:53.760Z,23.50
2019-06-20T10:56:23.982Z,23.60
2019-06-20T10:58:54.063Z,23.70
2019-06-20T11:01:24.216Z,23.80
2019-06-20T11:03:54.462Z,23.90
2019-06-20T11:06:24.645Z,24.00
2019-06-20T11:08:54.720Z,24.20
2019-06-20T11:11:24.974Z,24.20
2019-06-20T11:13:55.090Z,24.40
2019-06-20T11:16:26.336Z,24.40
2019-06-20T11:18:56.730Z,24.50
2019-06-20T11:21:27.167Z,24.60
2019-06-20T11:23:57.513Z,24.70
2019-06-20T11:26:27.778Z,24.80
2019-06-20T11:28:58.983Z,24.80
2019-06-20T11:31:29.102Z,24.90
2019-06-20T11:33:59.150Z,25.00
2019-06-20T11:36:29.262Z,25.00
2019-06-20T11:38:59.280Z,25.10
2019-06-20T11:41:29.539Z,25.10
2019-06-20T11:43:59.711Z,25.20
2019-06-20T11:46:29.882Z,25.30
2019-06-20T11:48:59.893Z,25.30
2019-06-20T11:51:30.010Z,25.40
2019-06-20T11:54:00.160Z,25.50
2019-06-20T11:56:30.275Z,25.50
2019-06-20T11:59:00.452Z,25.40
2019-06-20T12:01:33.177Z,25.40
2019-06-20T12:04:02.441Z,25.40
2019-06-20T12:06:32.558Z,25.40
2019-06-20T12:09:02.844Z,25.40
2019-06-20T12:11:33.076Z,25.40
2019-06-20T12:14:03.156Z,25.40
2019-06-20T12:16:33.327Z,25.40
2019-06-20T12:19:03.405Z,25.40
2019-06-20T12:21:33.490Z,25.40
2019-06-20T12:24:03.557Z,25.40
2019-06-20T12:26:33.723Z,25.40
2019-06-20T12:29:03.936Z,25.30
2019-06-20T12:31:34.145Z,25.30
2019-06-20T12:34:04.397Z,25.30
2019-06-20T12:36:34.621Z,25.30
2019-06-20T12:39:06.744Z,25.20
2019-06-20T12:41:36.891Z,25.20
2019-06-20T12:44:07.057Z,25.20
2019-06-20T12:46:39.367Z,25.20
2019-06-20T12:49:08.964Z,25.20
2019-06-20T12:51:40.379Z,25.20
2019-06-20T12:54:10.604Z,25.20
2019-06-20T12:56:41.898Z,25.20
2019-06-20T12:59:11.960Z,25.20
2019-06-20T13:01:45.706Z,25.20
2019-06-20T13:04:14.040Z,25.30
2019-06-20T13:06:44.442Z,25.20
2019-06-20T13:09:14.452Z,25.20
2019-06-20T13:11:44.870Z,25.30
2019-06-20T13:14:15.031Z,25.30
2019-06-20T13:16:46.034Z,25.30
2019-06-20T13:19:16.215Z,25.30
2019-06-20T13:21:46.572Z,25.30
2019-06-20T13:24:16.633Z,25.30
2019-06-20T13:26:48.896Z,25.30
2019-06-20T13:29:18.718Z,25.30
2019-06-20T13:32:01.921Z,25.30
2019-06-20T13:34:20.701Z,25.30
2019-06-20T13:36:50.963Z,25.30
2019-06-20T13:39:21.255Z,25.30
2019-06-20T13:41:51.485Z,25.30
2019-06-20T13:44:21.870Z,25.20
2019-06-20T13:46:52.127Z,25.20
2019-06-20T13:49:22.232Z,25.10
2019-06-20T13:51:52.357Z,25.00
2019-06-20T13:54:23.406Z,25.00
2019-06-20T13:56:53.997Z,24.90
2019-06-20T13:59:24.312Z,24.80
2019-06-20T14:02:06.136Z,24.70
2019-06-20T14:04:26.379Z,24.60
2019-06-20T14:06:56.873Z,24.60
2019-06-20T14:09:27.007Z,24.50
2019-06-20T14:11:57.212Z,24.50
2019-06-20T14:14:27.469Z,24.40
2019-06-20T14:16:57.639Z,24.40
2019-06-20T14:19:27.573Z,24.40
2019-06-20T14:21:57.584Z,24.40
2019-06-20T14:24:27.608Z,24.40
2019-06-20T14:26:58.466Z,24.40
2019-06-20T14:29:28.649Z,24.40
2019-06-20T14:31:58.743Z,24.40
2019-06-20T14:34:28.915Z,24.30
2019-06-20T14:36:59.070Z,24.30
2019-06-20T14:39:29.244Z,24.30
2019-06-20T14:41:59.373Z,24.30
2019-06-20T14:44:29.458Z,24.30
2019-06-20T14:46:59.547Z,24.30
2019-06-20T14:49:29.672Z,24.20
2019-06-20T14:51:59.863Z,24.20
2019-06-20T14:54:30.100Z,24.20
2019-06-20T14:57:00.190Z,24.30
2019-06-20T14:59:30.213Z,24.30
2019-06-20T15:02:00.183Z,24.30
2019-06-20T15:04:30.182Z,24.40
2019-06-20T15:07:00.309Z,24.40
2019-06-20T15:09:30.279Z,24.40
2019-06-20T15:12:00.415Z,24.40
2019-06-20T15:14:30.356Z,24.40
2019-06-20T15:17:00.380Z,24.40
2019-06-20T15:19:30.414Z,24.40
2019-06-20T15:22:00.475Z,24.40
2019-06-20T15:24:30.945Z,24.40
2019-06-20T15:27:01.033Z,24.40
2019-06-20T15:29:31.085Z,24.40
2019-06-20T15:32:01.183Z,24.40
2019-06-20T15:34:32.111Z,24.30
2019-06-20T15:37:06.176Z,24.30
2019-06-20T15:39:33.986Z,24.30
2019-06-20T15:42:04.155Z,24.20
2019-06-20T15:44:34.340Z,24.20
2019-06-20T15:47:04.549Z,24.10
2019-06-20T15:49:34.561Z,24.00
2019-06-20T15:52:04.809Z,24.00
2019-06-20T15:54:34.891Z,23.90
2019-06-20T15:57:05.092Z,23.80
2019-06-20T15:59:35.119Z,23.80
2019-06-20T16:02:05.325Z,23.80
2019-06-20T16:04:35.405Z,23.80
2019-06-20T16:07:05.516Z,23.80
2019-06-20T16:09:35.798Z,23.80
2019-06-20T16:12:05.948Z,23.80
2019-06-20T16:14:35.931Z,23.80
2019-06-20T16:17:06.085Z,23.80
2019-06-20T16:19:36.060Z,23.70
2019-06-20T16:22:06.472Z,23.70
2019-06-20T16:24:36.806Z,23.60
2019-06-20T16:27:06.886Z,23.60
2019-06-20T16:29:36.820Z,23.60
2019-06-20T16:32:06.973Z,23.50
2019-06-20T16:34:39.395Z,23.50
2019-06-20T16:37:10.540Z,23.50
2019-06-20T16:39:40.902Z,23.50
2019-06-20T16:42:11.048Z,23.40
2019-06-20T16:44:41.178Z,23.40
2019-06-20T16:47:11.250Z,23.30
2019-06-20T16:49:41.316Z,23.30
2019-06-20T16:52:11.724Z,23.30
2019-06-20T16:54:41.854Z,23.30
2019-06-20T16:57:11.922Z,23.30
2019-06-20T16:59:41.886Z,23.20
2019-06-20T17:02:11.945Z,23.20
2019-06-20T17:04:41.890Z,23.20
2019-06-20T17:07:11.924Z,23.20
2019-06-20T17:09:42.138Z,23.10
2019-06-20T17:12:12.305Z,23.10
2019-06-20T17:14:42.425Z,23.10
2019-06-20T17:17:12.564Z,23.00
2019-06-20T17:19:42.733Z,23.00
2019-06-20T17:22:12.881Z,23.00
2019-06-20T17:24:42.976Z,23.00
2019-06-20T17:27:13.004Z,23.00
2019-06-20T17:29:43.162Z,23.00
2019-06-20T17:32:14.577Z,22.90
2019-06-20T17:34:44.738Z,22.90
2019-06-20T17:37:14.741Z,22.90
2019-06-20T17:39:44.906Z,22.90
2019-06-20T17:42:15.040Z,22.90
2019-06-20T17:44:45.153Z,22.90
2019-06-20T17:47:15.312Z,22.80
2019-06-20T17:49:45.634Z,22.80
2019-06-20T17:52:15.806Z,22.80
2019-06-20T17:54:45.757Z,22.80
2019-06-20T17:57:15.975Z,22.80
2019-06-20T17:59:45.948Z,22.80
2019-06-20T18:02:16.036Z,22.70
2019-06-20T18:04:46.126Z,22.70
2019-06-20T18:07:16.309Z,22.60
2019-06-20T18:09:46.457Z,22.60
2019-06-20T18:12:16.586Z,22.60
2019-06-20T18:14:46.600Z,22.50
2019-06-20T18:17:16.715Z,22.50
2019-06-20T18:19:46.811Z,22.40
2019-06-20T18:22:16.879Z,22.40
2019-06-20T18:24:47.067Z,22.30
2019-06-20T18:27:17.135Z,22.30
2019-06-20T18:29:47.164Z,22.20
2019-06-20T18:32:17.264Z,22.10
2019-06-20T18:35:00.956Z,22.00
2019-06-20T18:37:31.072Z,22.00
2019-06-20T18:39:51.289Z,22.00
2019-06-20T18:42:21.932Z,21.90
2019-06-20T18:44:52.051Z,21.80
2019-06-20T18:47:22.182Z,21.80
2019-06-20T18:49:52.339Z,21.70
2019-06-20T18:52:22.488Z,21.70
2019-06-20T18:54:52.581Z,21.60
2019-06-20T18:57:22.734Z,21.60
2019-06-20T18:59:52.820Z,21.60
2019-06-20T19:02:22.898Z,21.50
2019-06-20T19:04:53.016Z,21.50
2019-06-20T19:07:23.033Z,21.50
2019-06-20T19:09:53.120Z,21.50
2019-06-20T19:12:23.097Z,21.40
2019-06-20T19:14:53.281Z,21.30
2019-06-20T19:17:23.387Z,21.30
2019-06-20T19:19:53.515Z,21.20
2019-06-20T19:22:23.546Z,21.10
2019-06-20T19:24:53.699Z,21.10
2019-06-20T19:27:24.272Z,21.10
2019-06-20T19:29:54.270Z,21.00
2019-06-20T19:32:24.369Z,21.00
2019-06-20T19:35:02.308Z,20.90
2019-06-20T19:37:26.190Z,20.80
2019-06-20T19:39:56.292Z,20.80
2019-06-20T19:42:26.397Z,20.70
2019-06-20T19:44:58.032Z,20.70
2019-06-20T19:47:28.227Z,20.70
2019-06-20T19:49:58.444Z,20.60
2019-06-20T19:52:28.634Z,20.60
2019-06-20T19:54:58.783Z,20.60
2019-06-20T19:57:29.029Z,20.60
2019-06-20T19:59:59.279Z,20.60
2019-06-20T20:02:29.599Z,20.50
2019-06-20T20:04:59.746Z,20.50
2019-06-20T20:07:29.910Z,20.50
2019-06-20T20:10:00.049Z,20.40
2019-06-20T20:12:30.194Z,20.40
2019-06-20T20:15:00.158Z,20.40
2019-06-20T20:17:30.161Z,20.40
2019-06-20T20:20:00.324Z,20.30
2019-06-20T20:22:30.295Z,20.30
2019-06-20T20:25:00.448Z,20.30
2019-06-20T20:27:30.470Z,20.30
2019-06-20T20:30:00.419Z,20.30
2019-06-20T20:32:30.412Z,20.20
2019-06-20T20:35:00.456Z,20.20
2019-06-20T20:37:30.661Z,20.20
2019-06-20T20:40:00.684Z,20.10
2019-06-20T20:42:30.788Z,20.10
2019-06-20T20:45:00.754Z,20.10
2019-06-20T20:47:30.757Z,20.10
2019-06-20T20:50:01.357Z,20.00
2019-06-20T20:52:31.924Z,20.00
2019-06-20T20:55:01.949Z,20.00
2019-06-20T20:57:32.115Z,20.00
2019-06-20T21:00:02.327Z,19.90
2019-06-20T21:02:32.420Z,19.90
2019-06-20T21:05:02.457Z,19.90
2019-06-20T21:07:32.564Z,19.90
2019-06-20T21:10:02.766Z,19.80
2019-06-20T21:12:32.733Z,19.80
2019-06-20T21:15:02.897Z,19.80
2019-06-20T21:17:32.976Z,19.80
2019-06-20T21:20:03.375Z,19.80
2019-06-20T21:22:33.556Z,19.80
2019-06-20T21:25:03.746Z,19.80
2019-06-20T21:27:33.755Z,19.70
2019-06-20T21:30:04.978Z,19.70
2019-06-20T21:32:35.124Z,19.70
2019-06-20T21:35:06.099Z,19.70
2019-06-20T21:37:36.101Z,19.70
2019-06-20T21:40:07.059Z,19.70
2019-06-20T21:42:37.146Z,19.60
2019-06-20T21:45:08.312Z,19.70
2019-06-20T21:47:38.318Z,19.70
2019-06-20T21:50:09.893Z,19.60
2019-06-20T21:52:40.133Z,19.60
2019-06-20T21:55:10.489Z,19.60
2019-06-20T21:57:40.555Z,19.60
2019-06-20T22:00:16.160Z,19.50
2019-06-20T22:02:46.262Z,19.50
2019-06-20T22:05:16.708Z,19.50
2019-06-20T22:07:46.779Z,19.50
2019-06-20T22:10:17.070Z,19.50
2019-06-20T22:12:47.144Z,19.50
2019-06-20T22:15:17.612Z,19.40
2019-06-20T22:17:47.840Z,19.40
2019-06-20T22:20:18.826Z,19.40
2019-06-20T22:22:48.950Z,19.40
2019-06-20T22:25:19.715Z,19.40
2019-06-20T22:27:49.904Z,19.40
2019-06-20T22:30:33.236Z,19.40
2019-06-20T22:33:03.379Z,19.40
2019-06-20T22:35:33.490Z,19.30
2019-06-20T22:38:03.759Z,19.30
2019-06-20T22:40:33.739Z,19.30
2019-06-20T22:43:03.962Z,19.30
2019-06-20T22:45:34.178Z,19.30
2019-06-20T22:48:04.353Z,19.20
2019-06-20T22:50:34.512Z,19.20
2019-06-20T22:53:04.732Z,19.20
2019-06-20T22:55:34.947Z,19.20
2019-06-20T22:58:05.432Z,19.20
2019-06-20T23:00:36.833Z,19.20
2019-06-20T23:03:07.495Z,19.20
2019-06-20T23:05:37.575Z,19.10
2019-06-20T23:08:07.714Z,19.10
2019-06-20T23:10:37.960Z,19.10
2019-06-20T23:13:08.065Z,19.10
2019-06-20T23:15:38.231Z,19.00
2019-06-20T23:18:08.423Z,19.00
2019-06-20T23:20:38.441Z,19.00
2019-06-20T23:23:08.532Z,19.00
2019-06-20T23:25:40.688Z,19.00
2019-06-20T23:28:10.760Z,18.90
2019-06-20T23:30:40.990Z,18.90
2019-06-20T23:33:10.916Z,18.90
2019-06-20T23:35:40.952Z,18.90
2019-06-20T23:38:11.214Z,18.80
2019-06-20T23:40:41.480Z,18.80
2019-06-20T23:43:11.583Z,18.80
2019-06-20T23:45:41.688Z,18.80
2019-06-20T23:48:11.761Z,18.80
2019-06-20T23:50:42.022Z,18.80
2019-06-20T23:53:18.163Z,18.70
2019-06-20T23:55:48.345Z,18.80
2019-06-20T23:58:18.451Z,18.70
